createdAt,value
2019-05-23T00:01:26.265Z,2.1
2019-05-23T00:11:26.399Z,2.6
2019-05-23T00:21:26.938Z,2.8
2019-05-23T00:31:27.046Z,2.9
2019-05-23T00:41:26.623Z,2.8
2019-05-23T00:51:25.566Z,2.5
2019-05-23T01:01:26.421Z,1.7
2019-05-23T01:11:26.168Z,1.8
2019-05-23T01:21:25.264Z,1.9
2019-05-23T01:31:27.071Z,2.4
2019-05-23T01:41:25.668Z,2.7
2019-05-23T01:51:26.858Z,3.1
2019-05-23T02:01:27.453Z,3.4
2019-05-23T02:11:27.151Z,4.1
2019-05-23T02:21:28.263Z,4.8
2019-05-23T02:31:26.529Z,4.2
2019-05-23T02:41:27.463Z,4.6
2019-05-23T02:51:26.867Z,4.7
2019-05-23T03:01:26.318Z,5.5
2019-05-23T03:11:25.960Z,5.2
2019-05-23T03:21:26.272Z,5.6
2019-05-23T03:31:30.279Z,5.6
2019-05-23T03:41:26.392Z,5.7
2019-05-23T03:51:26.246Z,5.7
2019-05-23T04:01:43.958Z,5.7
2019-05-23T04:11:25.114Z,5.0
2019-05-23T04:21:25.979Z,6.6
2019-05-23T04:31:28.118Z,6.8
2019-05-23T04:41:26.888Z,8.2
2019-05-23T04:51:26.947Z,5.7
2019-05-23T05:01:26.781Z,4.7
2019-05-23T05:11:30.110Z,5.1
2019-05-23T05:21:26.043Z,4.6
2019-05-23T05:31:26.403Z,4.0
2019-05-23T05:41:26.797Z,3.4
2019-05-23T05:51:26.284Z,3.3
2019-05-23T06:01:33.633Z,3.9
2019-05-23T06:11:25.947Z,4.1
2019-05-23T06:21:25.825Z,4.5
2019-05-23T06:31:25.938Z,3.5
2019-05-23T06:41:27.820Z,2.6
2019-05-23T06:51:25.783Z,2.5
2019-05-23T07:01:25.345Z,2.5
2019-05-23T07:11:25.229Z,2.4
2019-05-23T07:21:27.677Z,2.2
2019-05-23T07:31:27.693Z,2.0
2019-05-23T07:41:27.231Z,2.2
2019-05-23T07:51:29.561Z,1.8
2019-05-23T08:01:34.944Z,2.3
2019-05-23T08:11:27.940Z,2.3
2019-05-23T08:21:24.818Z,3.2
2019-05-23T08:31:25.973Z,2.9
2019-05-23T08:41:27.356Z,2.8
2019-05-23T08:51:25.931Z,2.6
2019-05-23T09:01:26.595Z,2.4
2019-05-23T09:11:26.398Z,2.8
2019-05-23T09:21:26.285Z,3.3
2019-05-23T09:31:26.138Z,3.1
2019-05-23T09:41:36.167Z,3.9
2019-05-23T09:51:25.881Z,3.6
2019-05-23T10:01:27.616Z,4.6
2019-05-23T10:11:26.396Z,4.4
2019-05-23T10:21:26.478Z,4.4
2019-05-23T10:31:26.261Z,4.7
2019-05-23T10:41:25.996Z,4.2
2019-05-23T10:51:26.720Z,5.1
2019-05-23T11:01:26.503Z,5.2
2019-05-23T11:11:25.654Z,5.2
2019-05-23T11:21:25.202Z,4.9
2019-05-23T11:31:26.239Z,5.2
2019-05-23T11:41:26.173Z,5.5
2019-05-23T11:51:26.918Z,5.3
2019-05-23T12:01:28.582Z,5.4
2019-05-23T12:11:25.330Z,7.1
2019-05-23T12:21:26.935Z,6.4
2019-05-23T12:31:26.552Z,6.5
2019-05-23T12:41:25.290Z,5.1
2019-05-23T12:51:25.562Z,5.6
2019-05-23T13:01:26.300Z,4.9
2019-05-23T13:11:25.992Z,4.9
2019-05-23T13:21:25.238Z,6.6
2019-05-23T13:31:26.095Z,6.1
2019-05-23T13:41:26.712Z,4.9
2019-05-23T13:51:26.922Z,5.6
2019-05-23T14:01:27.355Z,5.6
2019-05-23T14:11:25.826Z,5.6
2019-05-23T14:21:27.855Z,6.0
2019-05-23T14:31:26.909Z,5.4
2019-05-23T14:41:26.734Z,8.3
2019-05-23T14:51:27.105Z,7.8
2019-05-23T15:01:27.516Z,7.4
2019-05-23T15:11:27.786Z,8.0
2019-05-23T15:21:26.691Z,8.3
2019-05-23T15:31:27.819Z,8.8
2019-05-23T15:41:26.421Z,7.8
2019-05-23T15:51:27.716Z,7.8
2019-05-23T16:01:27.157Z,7.7
2019-05-23T16:11:27.569Z,8.6
2019-05-23T16:21:26.315Z,9.3
2019-05-23T16:31:25.927Z,9.7
2019-05-23T16:41:26.555Z,10.6
2019-05-23T16:51:27.014Z,9.8
2019-05-23T17:01:26.667Z,11.8
2019-05-23T17:11:29.469Z,11.5
2019-05-23T17:21:26.124Z,11.9
2019-05-23T17:31:27.021Z,12.4
2019-05-23T17:41:26.858Z,10.3
2019-05-23T17:51:26.466Z,11.9
2019-05-23T18:01:26.182Z,11.7
2019-05-23T18:11:27.012Z,11.9
2019-05-23T18:21:26.141Z,10.2
2019-05-23T18:31:25.871Z,11.3
2019-05-23T18:41:27.109Z,11.2
2019-05-23T18:51:26.269Z,11.1
2019-05-23T19:01:25.811Z,12.4
2019-05-23T19:11:27.061Z,11.8
2019-05-23T19:21:27.102Z,11.6
2019-05-23T19:31:25.825Z,14.8
2019-05-23T19:41:36.594Z,15.5
2019-05-23T19:51:26.427Z,15.8
2019-05-23T20:01:26.367Z,16.7
2019-05-23T20:11:26.392Z,17.2
2019-05-23T20:21:26.878Z,16.0
2019-05-23T20:31:26.640Z,15.9
2019-05-23T20:41:26.689Z,15.4
2019-05-23T20:51:27.842Z,14.8
2019-05-23T21:01:27.362Z,16.6
2019-05-23T21:11:26.599Z,17.1
2019-05-23T21:21:58.456Z,17.5
2019-05-23T21:31:26.554Z,17.4
2019-05-23T21:42:46.528Z,15.3
2019-05-23T21:52:31.457Z,14.4
2019-05-23T22:01:26.284Z,15.2
2019-05-23T22:12:31.696Z,16.0
2019-05-23T22:22:34.010Z,18.0
2019-05-23T22:31:27.452Z,19.6
2019-05-23T22:41:26.109Z,22.4
2019-05-23T22:51:27.785Z,23.9
2019-05-23T23:01:59.438Z,26.6
2019-05-23T23:13:01.895Z,25.9
2019-05-23T23:21:27.543Z,27.4
2019-05-23T23:31:26.159Z,27.2
2019-05-23T23:41:26.923Z,28.7
2019-05-23T23:51:26.535Z,30.1
